Observation data for Paducah on 02/14/2020      Previous  Date  Next       Current Mesonet Observations  Soil Data  Daily Summary Page  Observations in Plain Language
KPAD 140600Z 08005KT M05/M08 A3037 RMK A01 T10471078  RH  078%=      5-min Rain = 0
KPAD 140605Z 08004KT M05/M08 A3037 RMK A01 T10471079  RH  079%=      5-min Rain = 0
KPAD 140610Z 08004KT M05/M08 A3037 RMK A01 T10481079  RH  079%=      5-min Rain = 0
KPAD 140615Z 09004KT M05/M08 A3037 RMK A01 T10491079  RH  080%=      5-min Rain = 0
KPAD 140620Z 10004KT M05/M08 A3037 RMK A01 T10481078  RH  079%=      5-min Rain = 0
KPAD 140625Z 09004KT M05/M08 A3037 RMK A01 T10481078  RH  079%=      5-min Rain = 0
KPAD 140630Z 10004KT M05/M08 A3037 RMK A01 T10481078  RH  080%=      5-min Rain = 0
KPAD 140635Z 09005KT M05/M08 A3037 RMK A01 T10481078  RH  080%=      5-min Rain = 0
KPAD 140640Z 09004KT M05/M08 A3037 RMK A01 T10491078  RH  080%=      5-min Rain = 0
KPAD 140645Z 09004KT M05/M08 A3037 RMK A01 T10491078  RH  080%=      5-min Rain = 0
KPAD 140650Z 09004KT M05/M08 A3037 RMK A01 T10501078  RH  080%=      5-min Rain = 0
KPAD 140655Z 09004KT M05/M08 A3037 RMK A01 T10501078  RH  081%=      5-min Rain = 0
KPAD 140700Z 09004KT M05/M08 A3037 RMK A01 T10501078  RH  081%=      5-min Rain = 0
KPAD 140705Z 08004KT M05/M08 A3036 RMK A01 T10501078  RH  081%=      5-min Rain = 0
KPAD 140710Z 08004KT M05/M08 A3036 RMK A01 T10501077  RH  081%=      5-min Rain = 0
KPAD 140715Z 08004KT M05/M08 A3036 RMK A01 T10501077  RH  081%=      5-min Rain = 0
KPAD 140720Z 07004KT M05/M08 A3037 RMK A01 T10501077  RH  081%=      5-min Rain = 0
KPAD 140725Z 06003KT M05/M08 A3037 RMK A01 T10491076  RH  081%=      5-min Rain = 0
KPAD 140730Z 05002KT M05/M08 A3037 RMK A01 T10491076  RH  082%=      5-min Rain = 0
KPAD 140735Z 03001KT M05/M08 A3037 RMK A01 T10491076  RH  082%=      5-min Rain = 0
KPAD 140740Z 04002KT M05/M08 A3037 RMK A01 T10491075  RH  082%=      5-min Rain = 0
KPAD 140745Z 03002KT M05/M08 A3037 RMK A01 T10491075  RH  082%=      5-min Rain = 0
KPAD 140750Z 02003KT M05/M08 A3037 RMK A01 T10501076  RH  082%=      5-min Rain = 0
KPAD 140755Z 04003KT M05/M08 A3037 RMK A01 T10501077  RH  082%=      5-min Rain = 0
KPAD 140800Z 04004KT M05/M08 A3037 RMK A01 T10511079  RH  081%=      5-min Rain = 0
KPAD 140805Z 04004KT M05/M08 A3038 RMK A01 T10521079  RH  081%=      5-min Rain = 0
KPAD 140810Z 05004KT M05/M08 A3038 RMK A01 T10531080  RH  081%=      5-min Rain = 0
KPAD 140815Z 06004KT M05/M08 A3038 RMK A01 T10541080  RH  082%=      5-min Rain = 0
KPAD 140820Z 07004KT M05/M08 A3038 RMK A01 T10541081  RH  082%=      5-min Rain = 0
KPAD 140825Z 07005KT M06/M08 A3038 RMK A01 T10561082  RH  082%=      5-min Rain = 0
KPAD 140830Z 08005KT M06/M08 A3038 RMK A01 T10571082  RH  082%=      5-min Rain = 0
KPAD 140835Z 07004KT M06/M08 A3038 RMK A01 T10581083  RH  083%=      5-min Rain = 0
KPAD 140840Z 06004KT M06/M08 A3038 RMK A01 T10581082  RH  083%=      5-min Rain = 0
KPAD 140845Z 05004KT M06/M08 A3038 RMK A01 T10581081  RH  084%=      5-min Rain = 0
KPAD 140850Z 05004KT M06/M08 A3038 RMK A01 T10571080  RH  084%=      5-min Rain = 0
KPAD 140855Z 06003KT M06/M08 A3038 RMK A01 T10571080  RH  083%=      5-min Rain = 0
KPAD 140900Z 07004KT M06/M08 A3038 RMK A01 T10571080  RH  083%=      5-min Rain = 0
KPAD 140905Z 06004KT M06/M08 A3038 RMK A01 T10571081  RH  083%=      5-min Rain = 0
KPAD 140910Z 06004KT M06/M08 A3038 RMK A01 T10571081  RH  083%=      5-min Rain = 0
KPAD 140915Z 05004KT M06/M08 A3038 RMK A01 T10581081  RH  083%=      5-min Rain = 0
KPAD 140920Z 04004KT M06/M08 A3038 RMK A01 T10581082  RH  083%=      5-min Rain = 0
KPAD 140925Z 03003KT M06/M08 A3037 RMK A01 T10581081  RH  084%=      5-min Rain = 0
KPAD 140930Z 02003KT M06/M08 A3038 RMK A01 T10571081  RH  084%=      5-min Rain = 0
KPAD 140935Z 02003KT M06/M08 A3038 RMK A01 T10571080  RH  084%=      5-min Rain = 0
KPAD 140940Z 02003KT M06/M08 A3038 RMK A01 T10581081  RH  084%=      5-min Rain = 0
KPAD 140945Z 03003KT M06/M08 A3038 RMK A01 T10581081  RH  084%=      5-min Rain = 0
KPAD 140950Z 02003KT M06/M08 A3038 RMK A01 T10581081  RH  083%=      5-min Rain = 0
KPAD 140955Z 01003KT M06/M08 A3038 RMK A01 T10591083  RH  083%=      5-min Rain = 0
KPAD 141000Z 36003KT M06/M08 A3038 RMK A01 T10601083  RH  084%=      5-min Rain = 0
KPAD 141005Z 35004KT M06/M08 A3038 RMK A01 T10621084  RH  084%=      5-min Rain = 0
KPAD 141010Z 34003KT M06/M08 A3038 RMK A01 T10621084  RH  085%=      5-min Rain = 0
KPAD 141015Z 34003KT M06/M08 A3038 RMK A01 T10641084  RH  085%=      5-min Rain = 0
KPAD 141020Z 34004KT M07/M09 A3038 RMK A01 T10651085  RH  086%=      5-min Rain = 0
KPAD 141025Z 34004KT M07/M09 A3038 RMK A01 T10671086  RH  086%=      5-min Rain = 0
KPAD 141030Z 34004KT M07/M09 A3038 RMK A01 T10691087  RH  087%=      5-min Rain = 0
KPAD 141035Z 35004KT M07/M09 A3038 RMK A01 T10701087  RH  087%=      5-min Rain = 0
KPAD 141040Z 34004KT M07/M09 A3038 RMK A01 T10711087  RH  088%=      5-min Rain = 0
KPAD 141045Z 34004KT M07/M09 A3038 RMK A01 T10721088  RH  088%=      5-min Rain = 0
KPAD 141050Z 34004KT M07/M09 A3038 RMK A01 T10731088  RH  088%=      5-min Rain = 0
KPAD 141055Z 34004KT M07/M09 A3039 RMK A01 T10731088  RH  089%=      5-min Rain = 0
KPAD 141100Z 34004KT M07/M09 A3038 RMK A01 T10741089  RH  089%=      5-min Rain = 0
KPAD 141105Z 34004KT M07/M09 A3038 RMK A01 T10741088  RH  089%=      5-min Rain = 0
KPAD 141110Z 34004KT M07/M09 A3038 RMK A01 T10741088  RH  090%=      5-min Rain = 0
KPAD 141115Z 34004KT M07/M09 A3038 RMK A01 T10741087  RH  090%=      5-min Rain = 0
KPAD 141120Z 33003KT M07/M09 A3038 RMK A01 T10741087  RH  090%=      5-min Rain = 0
KPAD 141125Z 34003KT M07/M09 A3038 RMK A01 T10741087  RH  090%=      5-min Rain = 0
KPAD 141130Z 34003KT M08/M09 A3038 RMK A01 T10751088  RH  090%=      5-min Rain = 0
KPAD 141135Z 34003KT M08/M09 A3039 RMK A01 T10751088  RH  090%=      5-min Rain = 0
KPAD 141140Z 34003KT M08/M09 A3038 RMK A01 T10751088  RH  090%=      5-min Rain = 0
KPAD 141145Z 35003KT M08/M09 A3038 RMK A01 T10761089  RH  090%=      5-min Rain = 0
KPAD 141150Z 35004KT M08/M09 A3038 RMK A01 T10771089  RH  091%=      5-min Rain = 0
KPAD 141155Z 34003KT M08/M09 A3038 RMK A01 T10771090  RH  091%=      5-min Rain = 0
KPAD 141200Z 35003KT M08/M09 A3038 RMK A01 T10781090  RH  091%=      5-min Rain = 0
KPAD 141205Z 34003KT M08/M09 A3038 RMK A01 T10781090  RH  091%=      5-min Rain = 0
KPAD 141210Z 34004KT M08/M09 A3038 RMK A01 T10781090  RH  091%=      5-min Rain = 0
KPAD 141215Z 33004KT M08/M09 A3038 RMK A01 T10791090  RH  091%=      5-min Rain = 0
KPAD 141220Z 33003KT M08/M09 A3038 RMK A01 T10791090  RH  091%=      5-min Rain = 0
KPAD 141225Z 34003KT M08/M09 A3038 RMK A01 T10781090  RH  092%=      5-min Rain = 0
KPAD 141230Z 34003KT M08/M09 A3038 RMK A01 T10771088  RH  092%=      5-min Rain = 0
KPAD 141235Z 35003KT M08/M09 A3038 RMK A01 T10751086  RH  092%=      5-min Rain = 0
KPAD 141240Z 36003KT M07/M08 A3038 RMK A01 T10731083  RH  092%=      5-min Rain = 0
KPAD 141245Z 00003KT M07/M08 A3038 RMK A01 T10711082  RH  092%=      5-min Rain = 0
KPAD 141250Z 35002KT M07/M08 A3038 RMK A01 T10691081  RH  092%=      5-min Rain = 0
KPAD 141255Z 36002KT M07/M08 A3038 RMK A01 T10691081  RH  091%=      5-min Rain = 0
KPAD 141300Z 00003KT M07/M08 A3038 RMK A01 T10701082  RH  091%=      5-min Rain = 0
KPAD 141305Z 01003KT M07/M08 A3039 RMK A01 T10711083  RH  091%=      5-min Rain = 0
KPAD 141310Z 01003KT M07/M08 A3038 RMK A01 T10701082  RH  091%=      5-min Rain = 0
KPAD 141315Z 02002KT M07/M08 A3039 RMK A01 T10691081  RH  091%=      5-min Rain = 0
KPAD 141320Z 03002KT M07/M08 A3039 RMK A01 T10681080  RH  091%=      5-min Rain = 0
KPAD 141325Z 04002KT M07/M08 A3039 RMK A01 T10661078  RH  091%=      5-min Rain = 0
KPAD 141330Z 04002KT M06/M08 A3039 RMK A01 T10641077  RH  091%=      5-min Rain = 0
KPAD 141335Z 05003KT M06/M08 A3039 RMK A01 T10631077  RH  090%=      5-min Rain = 0
KPAD 141340Z 07002KT M06/M08 A304 RMK A01 T10631077  RH  090%=      5-min Rain = 0
KPAD 141345Z 07002KT M06/M08 A304 RMK A01 T10621076  RH  089%=      5-min Rain = 0
KPAD 141350Z 06002KT M06/M08 A304 RMK A01 T10611076  RH  089%=      5-min Rain = 0
KPAD 141355Z 07002KT M06/M08 A304 RMK A01 T10601076  RH  089%=      5-min Rain = 0
KPAD 141400Z 07002KT M06/M08 A304 RMK A01 T10601077  RH  088%=      5-min Rain = 0
KPAD 141405Z 08002KT M06/M08 A304 RMK A01 T10591076  RH  088%=      5-min Rain = 0
KPAD 141410Z 08002KT M06/M08 A304 RMK A01 T10581075  RH  088%=      5-min Rain = 0
KPAD 141415Z 08004KT M06/M08 A304 RMK A01 T10571075  RH  087%=      5-min Rain = 0
KPAD 141420Z 07004KT M06/M08 A304 RMK A01 T10571075  RH  087%=      5-min Rain = 0
KPAD 141425Z 07004KT M06/M07 A3041 RMK A01 T10561074  RH  087%=      5-min Rain = 0
KPAD 141430Z 08003KT M05/M07 A3041 RMK A01 T10541072  RH  087%=      5-min Rain = 0
KPAD 141435Z 08004KT M05/M07 A3041 RMK A01 T10531073  RH  086%=      5-min Rain = 0
KPAD 141440Z 08003KT M05/M07 A3041 RMK A01 T10521072  RH  086%=      5-min Rain = 0
KPAD 141445Z 08003KT M05/M07 A3042 RMK A01 T10521073  RH  085%=      5-min Rain = 0
KPAD 141450Z 08003KT M05/M07 A3042 RMK A01 T10511072  RH  085%=      5-min Rain = 0
KPAD 141455Z 08003KT M05/M07 A3042 RMK A01 T10501073  RH  084%=      5-min Rain = 0
KPAD 141500Z 09003KT M05/M07 A3042 RMK A01 T10501073  RH  084%=      5-min Rain = 0
KPAD 141505Z 10003KT M05/M07 A3042 RMK A01 T10471070  RH  084%=      5-min Rain = 0
KPAD 141510Z 11004KT M05/M07 A3042 RMK A01 T10471072  RH  083%=      5-min Rain = 0
KPAD 141515Z 11004KT M05/M07 A3042 RMK A01 T10471073  RH  082%=      5-min Rain = 0
KPAD 141520Z 11004KT M05/M07 A3042 RMK A01 T10471074  RH  081%=      5-min Rain = 0
KPAD 141525Z 12004KT M05/M07 A3041 RMK A01 T10461074  RH  081%=      5-min Rain = 0
KPAD 141530Z 11004KT M04/M07 A3041 RMK A01 T10441073  RH  081%=      5-min Rain = 0
KPAD 141535Z 12004KT M04/M07 A3041 RMK A01 T10431073  RH  080%=      5-min Rain = 0
KPAD 141540Z 13004KT M04/M07 A3041 RMK A01 T10431074  RH  079%=      5-min Rain = 0
KPAD 141545Z 13005KT M04/M07 A3041 RMK A01 T10421073  RH  079%=      5-min Rain = 0
KPAD 141550Z 12005KT M04/M07 A3041 RMK A01 T10411073  RH  079%=      5-min Rain = 0
KPAD 141555Z 13005KT M04/M07 A3041 RMK A01 T10401072  RH  078%=      5-min Rain = 0
KPAD 141600Z 14005KT M04/M07 A3041 RMK A01 T10391073  RH  078%=      5-min Rain = 0
KPAD 141605Z 14005KT M04/M07 A3041 RMK A01 T10381072  RH  077%=      5-min Rain = 0
KPAD 141610Z 14005KT M04/M07 A3041 RMK A01 T10371071  RH  077%=      5-min Rain = 0
KPAD 141615Z 13005KT M04/M07 A3041 RMK A01 T10351071  RH  077%=      5-min Rain = 0
KPAD 141620Z 13005KT M03/M07 A3041 RMK A01 T10341071  RH  076%=      5-min Rain = 0
KPAD 141625Z 14004KT M03/M07 A3041 RMK A01 T10331070  RH  075%=      5-min Rain = 0
KPAD 141630Z 15004KT M03/M07 A3041 RMK A01 T10331071  RH  075%=      5-min Rain = 0
KPAD 141635Z 15005KT M03/M07 A304 RMK A01 T10301069  RH  075%=      5-min Rain = 0
KPAD 141640Z 14006KT M03/M07 A304 RMK A01 T10281068  RH  074%=      5-min Rain = 0
KPAD 141645Z 16005KT M03/M07 A304 RMK A01 T10271068  RH  074%=      5-min Rain = 0
KPAD 141650Z 15005KT M03/M07 A304 RMK A01 T10251066  RH  074%=      5-min Rain = 0
KPAD 141655Z 14005KT M02/M07 A304 RMK A01 T10231065  RH  073%=      5-min Rain = 0
KPAD 141700Z 13005KT M02/M06 A304 RMK A01 T10211063  RH  073%=      5-min Rain = 0
KPAD 141705Z 14006KT M02/M06 A3039 RMK A01 T10211062  RH  073%=      5-min Rain = 0
KPAD 141710Z 14005KT M02/M06 A3039 RMK A01 T10201061  RH  074%=      5-min Rain = 0
KPAD 141715Z 13005KT M02/M06 A3039 RMK A01 T10171058  RH  073%=      5-min Rain = 0
KPAD 141720Z 16006KT M01/M06 A3039 RMK A01 T10141056  RH  073%=      5-min Rain = 0
KPAD 141725Z 15005KT M01/M06 A3039 RMK A01 T10121055  RH  072%=      5-min Rain = 0
KPAD 141730Z 14006KT M01/M05 A3039 RMK A01 T10101053  RH  073%=      5-min Rain = 0
KPAD 141735Z 14006KT M01/M05 A3039 RMK A01 T10071050  RH  073%=      5-min Rain = 0
KPAD 141740Z 15006KT M01/M05 A3038 RMK A01 T10071050  RH  073%=      5-min Rain = 0
KPAD 141745Z 17006KT M00/M05 A3038 RMK A01 T10041045  RH  074%=      5-min Rain = 0
KPAD 141750Z 18007KT 00/M04 A3038 RMK A01 T00021042  RH  073%=      5-min Rain = 0
KPAD 141755Z 17008KT 00/M04 A3038 RMK A01 T00031042  RH  073%=      5-min Rain = 0
KPAD 141800Z 19008KT 01/M04 A3038 RMK A01 T00051040  RH  072%=      5-min Rain = 0
KPAD 141805Z 19009KT 01/M04 A3037 RMK A01 T00071037  RH  073%=      5-min Rain = 0
KPAD 141810Z 18010KT 01/M04 A3037 RMK A01 T00071039  RH  071%=      5-min Rain = 0
KPAD 141815Z 18008G13KT 01/M04 A3036 RMK A01 T00051039  RH  072%=      5-min Rain = 0
KPAD 141820Z 18009G14KT 01/M04 A3036 RMK A01 T00051038  RH  073%=      5-min Rain = 0
KPAD 141825Z 18009KT 01/M03 A3035 RMK A01 T00111033  RH  073%=      5-min Rain = 0
KPAD 141830Z 18010KT 01/M03 A3035 RMK A01 T00141033  RH  071%=      5-min Rain = 0
KPAD 141835Z 20009G14KT 01/M03 A3034 RMK A01 T00141033  RH  071%=      5-min Rain = 0
KPAD 141840Z 19009G14KT 02/M03 A3034 RMK A01 T00171028  RH  072%=      5-min Rain = 0
KPAD 141845Z 19008KT 02/M03 A3033 RMK A01 T00181032  RH  070%=      5-min Rain = 0
KPAD 141850Z 19011KT 02/M03 A3033 RMK A01 T00221030  RH  069%=      5-min Rain = 0
KPAD 141855Z 19010KT 03/M03 A3033 RMK A01 T00251030  RH  067%=      5-min Rain = 0
KPAD 141900Z 19008KT 03/M03 A3033 RMK A01 T00261030  RH  067%=      5-min Rain = 0
KPAD 141905Z 20008KT 02/M03 A3033 RMK A01 T00231028  RH  069%=      5-min Rain = 0
KPAD 141910Z 18011KT 03/M03 A3032 RMK A01 T00311028  RH  066%=      5-min Rain = 0
KPAD 141915Z 17010KT 03/M03 A3032 RMK A01 T00331028  RH  065%=      5-min Rain = 0
KPAD 141920Z 19008G14KT 03/M03 A3031 RMK A01 T00341028  RH  064%=      5-min Rain = 0
KPAD 141925Z 18010G17KT 04/M03 A3031 RMK A01 T00351027  RH  064%=      5-min Rain = 0
KPAD 141930Z 17010KT 04/M03 A303 RMK A01 T00361029  RH  063%=      5-min Rain = 0
KPAD 141935Z 20009G14KT 04/M03 A303 RMK A01 T00391026  RH  063%=      5-min Rain = 0
KPAD 141940Z 20010KT 04/M03 A303 RMK A01 T00401028  RH  062%=      5-min Rain = 0
KPAD 141945Z 18010G15KT 04/M03 A3029 RMK A01 T00401026  RH  063%=      5-min Rain = 0
KPAD 141950Z 20011KT 04/M03 A3029 RMK A01 T00431025  RH  061%=      5-min Rain = 0
KPAD 141955Z 19012G18KT 05/M03 A3029 RMK A01 T00461026  RH  060%=      5-min Rain = 0
KPAD 142000Z 19012G18KT 05/M03 A3028 RMK A01 T00471025  RH  060%=      5-min Rain = 0
KPAD 142005Z 18012KT 05/M02 A3028 RMK A01 T00501024  RH  059%=      5-min Rain = 0
KPAD 142010Z 19011G16KT 05/M03 A3028 RMK A01 T00491026  RH  059%=      5-min Rain = 0
KPAD 142015Z 18011G17KT 05/M03 A3027 RMK A01 T00521025  RH  058%=      5-min Rain = 0
KPAD 142020Z 19013G18KT 06/M03 A3027 RMK A01 T00551025  RH  057%=      5-min Rain = 0
KPAD 142025Z 19010KT 05/M03 A3027 RMK A01 T00531025  RH  057%=      5-min Rain = 0
KPAD 142030Z 20013KT 06/M02 A3026 RMK A01 T00571024  RH  057%=      5-min Rain = 0
KPAD 142035Z 19009G16KT 06/M02 A3026 RMK A01 T00601022  RH  056%=      5-min Rain = 0
KPAD 142040Z 20011G16KT 06/M02 A3026 RMK A01 T00601023  RH  056%=      5-min Rain = 0
KPAD 142045Z 20011KT 06/M02 A3025 RMK A01 T00601022  RH  056%=      5-min Rain = 0
KPAD 142050Z 20012G17KT 06/M02 A3025 RMK A01 T00641020  RH  055%=      5-min Rain = 0
KPAD 142055Z 20013G18KT 06/M02 A3025 RMK A01 T00641020  RH  055%=      5-min Rain = 0
KPAD 142100Z 19014G19KT 06/M02 A3025 RMK A01 T00641019  RH  056%=      5-min Rain = 0
KPAD 142105Z 19012G17KT 07/M02 A3024 RMK A01 T00651018  RH  056%=      5-min Rain = 0
KPAD 142110Z 19011G16KT 07/M02 A3024 RMK A01 T00691016  RH  055%=      5-min Rain = 0
KPAD 142115Z 18013KT 07/M02 A3024 RMK A01 T00721015  RH  054%=      5-min Rain = 0
KPAD 142120Z 18011KT 07/M01 A3024 RMK A01 T00711014  RH  055%=      5-min Rain = 0
KPAD 142125Z 17012G17KT 08/M01 A3023 RMK A01 T00751012  RH  054%=      5-min Rain = 0
KPAD 142130Z 20012G17KT 07/M01 A3023 RMK A01 T00741012  RH  055%=      5-min Rain = 0
KPAD 142135Z 19013G19KT 08/M01 A3023 RMK A01 T00761011  RH  054%=      5-min Rain = 0
KPAD 142140Z 19012KT 08/M01 A3023 RMK A01 T00771011  RH  054%=      5-min Rain = 0
KPAD 142145Z 19011G18KT 08/M01 A3022 RMK A01 T00771010  RH  055%=      5-min Rain = 0
KPAD 142150Z 20014G20KT 08/M01 A3022 RMK A01 T00791010  RH  054%=      5-min Rain = 0
KPAD 142155Z 19012G17KT 08/M01 A3022 RMK A01 T00761011  RH  055%=      5-min Rain = 0
KPAD 142200Z 19014KT 08/M01 A3022 RMK A01 T00771011  RH  055%=      5-min Rain = 0
KPAD 142205Z 19013G19KT 08/M01 A3022 RMK A01 T00771009  RH  055%=      5-min Rain = 0
KPAD 142210Z 18015KT 08/M01 A3022 RMK A01 T00791009  RH  054%=      5-min Rain = 0
KPAD 142215Z 18012KT 08/M01 A3021 RMK A01 T00791008  RH  055%=      5-min Rain = 0
KPAD 142220Z 19012G17KT 08/M01 A3021 RMK A01 T00811008  RH  054%=      5-min Rain = 0
KPAD 142225Z 18013G20KT 08/M01 A3021 RMK A01 T00791009  RH  054%=      5-min Rain = 0
KPAD 142230Z 18012KT 08/M01 A3021 RMK A01 T00791008  RH  055%=      5-min Rain = 0
KPAD 142235Z 20014KT 08/M01 A302 RMK A01 T00801007  RH  055%=      5-min Rain = 0
KPAD 142240Z 19011G17KT 08/M01 A302 RMK A01 T00811005  RH  055%=      5-min Rain = 0
KPAD 142245Z 19012KT 08/M01 A302 RMK A01 T00821005  RH  055%=      5-min Rain = 0
KPAD 142250Z 18013G18KT 08/M00 A302 RMK A01 T00821004  RH  055%=      5-min Rain = 0
KPAD 142255Z 18011G16KT 08/M00 A3019 RMK A01 T00801004  RH  056%=      5-min Rain = 0
KPAD 142300Z 20013G18KT 08/M00 A3019 RMK A01 T00801003  RH  056%=      5-min Rain = 0
KPAD 142305Z 20014G19KT 08/M00 A3019 RMK A01 T00791002  RH  057%=      5-min Rain = 0
KPAD 142310Z 19013KT 08/M00 A3019 RMK A01 T00801002  RH  057%=      5-min Rain = 0
KPAD 142315Z 19014G20KT 08/M00 A3019 RMK A01 T00791002  RH  058%=      5-min Rain = 0
KPAD 142320Z 20012KT 08/00 A3019 RMK A01 T007800-0  RH  058%=      5-min Rain = 0
KPAD 142325Z 20011KT 08/00 A3019 RMK A01 T00780000  RH  059%=      5-min Rain = 0
KPAD 142330Z 20012KT 08/00 A3019 RMK A01 T00770001  RH  059%=      5-min Rain = 0
KPAD 142335Z 20013KT 08/00 A3019 RMK A01 T00760001  RH  060%=      5-min Rain = 0
KPAD 142340Z 20012KT 07/00 A3018 RMK A01 T00740001  RH  060%=      5-min Rain = 0
KPAD 142345Z 20012KT 07/00 A3018 RMK A01 T00740001  RH  061%=      5-min Rain = 0
KPAD 142350Z 20010G15KT 07/00 A3018 RMK A01 T00730001  RH  061%=      5-min Rain = 0
KPAD 142355Z 20010KT 07/00 A3018 RMK A01 T00700001  RH  062%=      5-min Rain = 0
KPAD 150000Z 20010KT 07/00 A3018 RMK A01 T00690001  RH  063%=      5-min Rain = 0
KPAD 150005Z 20009KT 07/00 A3018 RMK A01 T00660001  RH  064%=      5-min Rain = 0
KPAD 150010Z 19009KT 06/00 A3018 RMK A01 T00640001  RH  065%=      5-min Rain = 0
KPAD 150015Z 20008KT 06/00 A3018 RMK A01 T00620001  RH  066%=      5-min Rain = 0
KPAD 150020Z 19007KT 06/00 A3018 RMK A01 T00590001  RH  067%=      5-min Rain = 0
KPAD 150025Z 19006KT 06/00 A3018 RMK A01 T005700-0  RH  068%=      5-min Rain = 0
KPAD 150030Z 19006KT 05/M00 A3018 RMK A01 T00521001  RH  069%=      5-min Rain = 0
KPAD 150035Z 19006KT 05/M00 A3018 RMK A01 T00501002  RH  070%=      5-min Rain = 0
KPAD 150040Z 19006KT 05/M00 A3018 RMK A01 T00451004  RH  071%=      5-min Rain = 0
KPAD 150045Z 19006KT 04/M01 A3018 RMK A01 T00411005  RH  072%=      5-min Rain = 0
KPAD 150050Z 19006KT 04/M01 A3018 RMK A01 T00381006  RH  074%=      5-min Rain = 0
KPAD 150055Z 19006KT 03/M01 A3018 RMK A01 T00341008  RH  075%=      5-min Rain = 0
KPAD 150100Z 18006KT 03/M01 A3018 RMK A01 T00321008  RH  076%=      5-min Rain = 0
KPAD 150105Z 19006KT 03/M01 A3018 RMK A01 T00311007  RH  077%=      5-min Rain = 0
KPAD 150110Z 18006KT 03/M01 A3017 RMK A01 T00301007  RH  078%=      5-min Rain = 0
KPAD 150115Z 18006KT 03/M01 A3017 RMK A01 T00281008  RH  078%=      5-min Rain = 0
KPAD 150120Z 18006KT 03/M01 A3018 RMK A01 T00281007  RH  079%=      5-min Rain = 0
KPAD 150125Z 18006KT 03/M01 A3017 RMK A01 T00301005  RH  078%=      5-min Rain = 0
KPAD 150130Z 18006KT 03/M01 A3018 RMK A01 T00301006  RH  078%=      5-min Rain = 0
KPAD 150135Z 18005KT 03/M01 A3018 RMK A01 T00291006  RH  078%=      5-min Rain = 0
KPAD 150140Z 18005KT 03/M01 A3017 RMK A01 T00271007  RH  079%=      5-min Rain = 0
KPAD 150145Z 17005KT 03/M01 A3017 RMK A01 T00261007  RH  080%=      5-min Rain = 0
KPAD 150150Z 17004KT 03/M01 A3017 RMK A01 T00261006  RH  080%=      5-min Rain = 0
KPAD 150155Z 20004KT 03/M01 A3017 RMK A01 T00271006  RH  080%=      5-min Rain = 0
KPAD 150200Z 23007KT 02/M01 A3017 RMK A01 T00231008  RH  081%=      5-min Rain = 0
KPAD 150205Z 21007KT 02/M01 A3017 RMK A01 T00241005  RH  082%=      5-min Rain = 0
KPAD 150210Z 22007KT 02/M01 A3017 RMK A01 T00221007  RH  082%=      5-min Rain = 0
KPAD 150215Z 22008KT 02/M01 A3017 RMK A01 T00221005  RH  083%=      5-min Rain = 0
KPAD 150220Z 24007KT 02/M00 A3017 RMK A01 T00231004  RH  083%=      5-min Rain = 0
KPAD 150225Z 24007KT 02/M01 A3017 RMK A01 T00221005  RH  083%=      5-min Rain = 0
KPAD 150230Z 24006KT 02/M01 A3017 RMK A01 T00211005  RH  083%=      5-min Rain = 0
KPAD 150235Z 24006KT 02/M01 A3017 RMK A01 T00201006  RH  084%=      5-min Rain = 0
KPAD 150240Z 24006KT 02/M01 A3017 RMK A01 T00191007  RH  084%=      5-min Rain = 0
KPAD 150245Z 24006KT 02/M01 A3017 RMK A01 T00171008  RH  084%=      5-min Rain = 0
KPAD 150250Z 22006KT 01/M01 A3017 RMK A01 T00141010  RH  084%=      5-min Rain = 0
KPAD 150255Z 22007KT 01/M01 A3016 RMK A01 T00101013  RH  085%=      5-min Rain = 0
KPAD 150300Z 22007KT 01/M01 A3017 RMK A01 T00091012  RH  086%=      5-min Rain = 0
KPAD 150305Z 22007KT 01/M01 A3016 RMK A01 T00091011  RH  087%=      5-min Rain = 0
KPAD 150310Z 22006KT 01/M01 A3016 RMK A01 T00101009  RH  088%=      5-min Rain = 0
KPAD 150315Z 22006KT 01/M01 A3016 RMK A01 T00111008  RH  088%=      5-min Rain = 0
KPAD 150320Z 22006KT 01/M01 A3016 RMK A01 T00101009  RH  088%=      5-min Rain = 0
KPAD 150325Z 22007KT 01/M01 A3016 RMK A01 T00091010  RH  088%=      5-min Rain = 0
KPAD 150330Z 22006KT 01/M01 A3016 RMK A01 T00061013  RH  088%=      5-min Rain = 0
KPAD 150335Z 22007KT 00/M02 A3016 RMK A01 T00041015  RH  088%=      5-min Rain = 0
KPAD 150340Z 22007KT 00/M02 A3016 RMK A01 T00011016  RH  089%=      5-min Rain = 0
KPAD 150345Z 21008KT 00/02 A3016 RMK A01 T00-00-17  RH  090%=      5-min Rain = 0
KPAD 150350Z 21009KT M00/M02 A3015 RMK A01 T10021017  RH  090%=      5-min Rain = 0
KPAD 150355Z 21009KT 00/02 A3015 RMK A01 T00-00-15  RH  091%=      5-min Rain = 0
KPAD 150400Z 21009KT 00/M01 A3015 RMK A01 T00011013  RH  091%=      5-min Rain = 0
KPAD 150405Z 21009KT 00/M01 A3015 RMK A01 T00041008  RH  092%=      5-min Rain = 0
KPAD 150410Z 21009KT 01/M00 A3015 RMK A01 T00101004  RH  092%=      5-min Rain = 0
KPAD 150415Z 20009KT 01/M00 A3015 RMK A01 T00121003  RH  091%=      5-min Rain = 0
KPAD 150420Z 20009KT 01/M00 A3015 RMK A01 T00141002  RH  090%=      5-min Rain = 0
KPAD 150425Z 20009KT 01/M00 A3015 RMK A01 T00141002  RH  090%=      5-min Rain = 0
KPAD 150430Z 20010KT 02/M00 A3014 RMK A01 T00151002  RH  090%=      5-min Rain = 0
KPAD 150435Z 20010KT 02/00 A3014 RMK A01 T00170000  RH  089%=      5-min Rain = 0
KPAD 150440Z 20011KT 02/00 A3014 RMK A01 T00190001  RH  089%=      5-min Rain = 0
KPAD 150445Z 20011KT 02/00 A3014 RMK A01 T00200001  RH  088%=      5-min Rain = 0
KPAD 150450Z 20011KT 02/00 A3013 RMK A01 T00210002  RH  088%=      5-min Rain = 0
KPAD 150455Z 20012KT 02/00 A3013 RMK A01 T00230004  RH  088%=      5-min Rain = 0
KPAD 150500Z 20013KT 03/01 A3013 RMK A01 T00270006  RH  087%=      5-min Rain = 0
KPAD 150505Z 20013KT 03/01 A3012 RMK A01 T00290007  RH  086%=      5-min Rain = 0
KPAD 150510Z 19014KT 03/01 A3012 RMK A01 T00310006  RH  085%=      5-min Rain = 0
KPAD 150515Z 19013KT 03/01 A3012 RMK A01 T00310006  RH  085%=      5-min Rain = 0
KPAD 150520Z 20014KT 03/01 A3012 RMK A01 T00320006  RH  084%=      5-min Rain = 0
KPAD 150525Z 19014KT 03/01 A3012 RMK A01 T00330007  RH  084%=      5-min Rain = 0
KPAD 150530Z 20014KT 03/01 A3012 RMK A01 T00330006  RH  083%=      5-min Rain = 0
KPAD 150535Z 19014KT 03/01 A3012 RMK A01 T00340006  RH  083%=      5-min Rain = 0
KPAD 150540Z 19015KT 03/01 A3011 RMK A01 T00340006  RH  083%=      5-min Rain = 0
KPAD 150545Z 19014KT 03/01 A3011 RMK A01 T00340005  RH  083%=      5-min Rain = 0
KPAD 150550Z 19014KT 03/01 A3011 RMK A01 T00340006  RH  083%=      5-min Rain = 0
KPAD 150555Z 19015KT 03/01 A3012 RMK A01 T00340005  RH  082%=      5-min Rain = 0

Page generated in 0.009 seconds.